Latest Weather Observations for Maitland Airport

IDN60801

Issued at 3:42 pm EST Wednesday 20 June 2018 (issued every 10 minutes, with the page automatically refreshed every 10 minutes)

About weather observations | Map of weather stations | Latest weather observations for NSW | Other Formats
Station Details ID: 061428 Name: MAITLAND AIRPORT AWS Lat: -32.70 Lon: 151.49 Height: 27.5 m
Data from the previous 72 hours. | See also: Recent months at Maitland Airport
Date/Time
EST
Temp
°C
App
Temp
°C
Dew
Point
°C
Rel
Hum
%
Delta-T
°C
Wind Press
QNH
hPa
Press
MSL
hPa
Rain since
9am
mm
Dir  Spd
km/h
Gust
km/h
Spd
kts
Gust
kts
20/03:30pm 16.7 13.7 10.5 67 3.3 SSE 17 24 9 13 1025.1 1025.1 0.2
20/03:00pm 16.9 14.3 10.7 67 3.3 SSE 15 20 8 11 1025.0 1025.0 0.2
20/02:30pm 17.1 14.1 10.5 65 3.5 SSE 17 24 9 13 1025.0 1025.0 0.2
20/02:00pm 16.6 14.0 12.0 74 2.5 SSE 17 26 9 14 1024.9 1024.9 0.2
20/01:30pm 16.2 12.8 11.4 73 2.6 S 20 26 11 14 1024.9 1024.9 0.2
20/01:00pm 16.8 12.5 10.9 68 3.1 SSE 24 33 13 18 1025.0 1025.0 0.2
20/12:30pm 17.1 14.4 11.6 70 3.0 SSE 17 26 9 14 1025.2 1025.2 0.2
20/12:00pm 16.8 13.8 12.1 74 2.6 S 19 24 10 13 1025.5 1025.5 0.2
20/11:30am 15.3 12.4 12.4 83 1.6 SSE 19 33 10 18 1026.1 1026.1 0.2
20/11:00am 16.7 14.2 11.0 69 3.0 S 15 22 8 12 1026.4 1026.4 0.0
20/10:30am 15.9 14.9 12.3 79 2.0 WSW 9 15 5 8 1026.5 1026.5 0.0
20/10:00am 15.3 14.6 11.9 80 1.8 WSW 7 13 4 7 1026.7 1026.7 0.0
20/09:30am 14.4 13.3 12.1 86 1.2 W 9 11 5 6 1026.8 1026.8 0.0
20/09:00am 13.3 11.8 12.0 92 0.7 W 11 15 6 8 1026.9 1026.9 24.8
20/08:30am 12.7 10.7 11.6 93 0.6 W 13 17 7 9 1027.1 1027.1 24.8
20/08:00am 12.3 10.5 10.9 91 0.7 WSW 11 15 6 8 1026.9 1026.9 24.8
20/07:30am 11.8 10.0 10.9 94 0.5 SW 11 13 6 7 1026.6 1026.6 24.8
20/07:00am 11.1 10.1 10.9 99 0.1 SSW 7 13 4 7 1026.4 1026.4 24.8
20/06:30am 11.4 10.1 11.2 99 0.1 SSW 9 13 5 7 1026.1 1026.1 24.8
20/06:00am 11.7 8.9 11.4 98 0.2 SSW 17 22 9 12 1025.6 1025.6 24.8
20/05:30am 11.4 8.5 11.1 98 0.2 SSW 17 22 9 12 1025.4 1025.4 24.8
20/05:00am 11.1 8.6 10.9 99 0.1 SW 15 22 8 12 1025.2 1025.2 24.8
20/04:30am 10.8 8.5 10.6 99 0.1 WSW 13 17 7 9 1025.1 1025.1 24.8
20/04:00am 10.4 8.8 10.2 99 0.1 WNW 9 15 5 8 1024.9 1024.9 24.6
20/03:30am 10.2 8.9 10.1 99 0.1 WNW 7 9 4 5 1024.8 1024.8 24.6
20/03:00am 10.8 8.9 10.6 99 0.1 WNW 11 15 6 8 1024.8 1024.8 24.6
20/02:30am 10.9 8.3 10.7 99 0.1 W 15 22 8 12 1024.6 1024.6 24.4
20/02:10am 10.8 8.9 10.6 99 0.1 WNW 11 13 6 7 1024.6 1024.6 24.4
20/02:00am 10.8 9.3 10.6 99 0.1 WNW 9 15 5 8 1024.5 1024.5 24.2
20/01:57am 10.8 9.3 10.6 99 0.1 WNW 9 13 5 7 1024.6 1024.6 24.2
20/01:30am 10.9 9.8 10.7 99 0.1 WNW 7 13 4 7 1024.5 1024.5 23.0
20/01:00am 10.8 8.5 10.6 99 0.1 WNW 13 17 7 9 1024.2 1024.2 22.8
20/12:30am 10.8 8.9 10.6 99 0.1 WNW 11 15 6 8 1024.0 1024.0 22.6
20/12:00am 11.0 9.2 10.8 99 0.1 WNW 11 17 6 9 1024.2 1024.2 22.0
 
Date/Time
EST
Temp
°C
App
Temp
°C
Dew
Point
°C
Rel
Hum
%
Delta-T
°C
Wind Press
QNH
hPa
Press
MSL
hPa
Rain since
9am
mm
Dir  Spd
km/h
Gust
km/h
Spd
kts
Gust
kts
19/11:30pm 10.9 7.5 10.7 99 0.1 WNW 19 26 10 14 1024.1 1024.1 21.8
19/11:00pm 10.7 8.4 10.5 99 0.1 W 13 17 7 9 1024.0 1024.0 21.8
19/10:30pm 10.8 8.9 10.6 99 0.1 W 11 17 6 9 1023.8 1023.8 21.8
19/10:00pm 10.8 8.5 10.6 99 0.1 W 13 20 7 11 1023.9 1023.9 21.4
19/09:30pm 10.9 8.7 10.7 99 0.1 W 13 17 7 9 1023.8 1023.8 21.0
19/09:00pm 10.9 8.3 10.7 99 0.1 W 15 17 8 9 1023.9 1023.9 19.6
19/08:30pm 10.9 9.1 10.7 99 0.1 SW 11 13 6 7 1023.7 1023.7 19.4
19/08:29pm 10.9 9.1 10.7 99 0.1 SW 11 13 6 7 1023.7 1023.7 19.4
19/08:15pm 11.0 9.6 10.8 99 0.1 SW 9 15 5 8 1024.1 1024.1 19.0
19/08:00pm 11.1 8.6 10.9 99 0.1 SW 15 20 8 11 1024.0 1024.0 17.8
19/07:30pm 11.2 10.4 10.9 98 0.2 W 6 9 3 5 1023.4 1023.4 16.4
19/07:00pm 11.4 9.3 11.2 99 0.1 WSW 13 19 7 10 1023.0 1023.0 15.6
19/06:30pm 11.3 9.2 11.1 99 0.1 SW 13 19 7 10 1022.9 1022.9 15.6
19/06:00pm 11.4 9.3 11.2 99 0.1 WSW 13 20 7 11 1022.4 1022.4 14.4
19/05:30pm 11.3 10.0 11.1 99 0.1 SW 9 13 5 7 1022.1 1022.1 13.6
19/05:00pm 11.2 10.2 11.0 99 0.1 SW 7 11 4 6 1021.8 1021.8 12.8
19/04:30pm 11.3 10.5 11.1 99 0.1 SW 6 7 3 4 1021.8 1021.8 12.2
19/04:00pm 11.7 10.7 11.1 96 0.3 SW 7 11 4 6 1021.8 1021.8 10.4
19/03:30pm 12.0 9.5 11.1 94 0.5 SW 15 22 8 12 1021.1 1021.1 10.2
19/03:00pm 13.1 9.6 11.0 87 1.1 SW 20 32 11 17 1020.9 1020.9 9.4
19/02:30pm 12.8 10.7 11.0 89 0.9 WSW 13 24 7 13 1021.0 1021.0 8.8
19/02:00pm 11.7 9.9 10.8 94 0.5 SSW 11 17 6 9 1020.7 1020.7 8.8
19/01:30pm 12.5 8.4 11.6 94 0.5 SW 24 39 13 21 1020.9 1020.9 8.0
19/01:00pm 12.6 9.7 11.0 90 0.8 SW 17 22 9 12 1020.6 1020.6 7.2
19/12:30pm 12.9 10.0 11.0 88 1.0 WSW 17 28 9 15 1020.5 1020.5 7.0
19/12:00pm 12.1 9.4 11.6 97 0.3 W 17 20 9 11 1021.0 1021.0 7.0
19/11:30am 10.5 7.4 10.3 99 0.1 W 17 20 9 11 1021.6 1021.6 7.0
19/11:00am 9.9 7.4 9.8 99 0.0 WNW 13 17 7 9 1022.4 1022.4 5.6
19/10:30am 10.0 8.7 9.9 99 0.1 WNW 7 13 4 7 1022.4 1022.4 3.0
19/10:00am 10.0 8.2 9.4 96 0.3 WNW 9 13 5 7 1022.4 1022.4 1.0
19/09:30am 10.0 8.2 9.4 96 0.3 NW 9 15 5 8 1021.6 1021.6 0.2
19/09:00am 9.8 8.0 9.3 97 0.2 E 9 15 5 8 1021.1 1021.1 3.0
19/08:30am 9.8 6.0 9.2 96 0.3 SW 19 26 10 14 1020.6 1020.6 2.4
19/08:00am 9.2 5.7 8.6 96 0.3 WSW 17 26 9 14 1020.1 1020.1 2.2
19/07:30am 9.2 5.0 8.4 95 0.4 WSW 20 28 11 15 1020.0 1020.0 1.8
19/07:00am 9.2 5.5 8.1 93 0.5 WSW 17 28 9 15 1019.7 1019.7 1.2
19/06:30am 10.3 5.9 7.2 81 1.5 SW 20 37 11 20 1019.3 1019.3 0.4
19/06:00am 10.8 6.7 6.0 72 2.2 WSW 17 26 9 14 1019.0 1019.0 0.2
19/05:30am 11.1 6.7 4.6 64 2.9 W 17 28 9 15 1018.7 1018.7 0.2
19/05:00am 10.9 6.3 3.9 62 3.1 W 17 22 9 12 1018.6 1018.6 0.2
19/04:30am 10.8 6.6 4.0 63 3.0 W 15 20 8 11 1019.0 1019.0 0.2
19/04:00am 10.4 5.8 3.9 64 2.9 W 17 24 9 13 1018.9 1018.9 0.2
19/03:30am 10.7 6.6 4.2 64 2.9 W 15 24 8 13 1019.0 1019.0 0.2
19/03:00am 10.7 6.6 4.4 65 2.8 W 15 24 8 13 1019.2 1019.2 0.2
19/02:30am 10.8 6.8 4.7 66 2.8 W 15 22 8 12 1019.3 1019.3 0.2
19/02:00am 11.1 6.2 5.2 67 2.7 W 20 30 11 16 1019.1 1019.1 0.2
19/01:30am 10.8 6.6 5.8 71 2.3 W 17 22 9 12 1019.3 1019.3 0.2
19/01:00am 10.1 6.7 5.9 75 1.9 W 13 20 7 11 1019.6 1019.6 0.2
19/12:30am 11.1 6.6 6.0 71 2.4 WSW 19 26 10 14 1019.6 1019.6 0.2
19/12:00am 11.2 7.5 6.5 73 2.2 W 15 22 8 12 1019.5 1019.5 0.2
 
Date/Time
EST
Temp
°C
App
Temp
°C
Dew
Point
°C
Rel
Hum
%
Delta-T
°C
Wind Press
QNH
hPa
Press
MSL
hPa
Rain since
9am
mm
Dir  Spd
km/h
Gust
km/h
Spd
kts
Gust
kts
18/11:30pm 11.9 8.3 6.8 71 2.4 WSW 15 28 8 15 1019.6 1019.6 0.2
18/11:00pm 12.0 8.8 6.9 71 2.4 W 13 20 7 11 1019.6 1019.6 0.2
18/10:30pm 12.3 8.0 7.0 70 2.5 WSW 19 32 10 17 1019.7 1019.7 0.2
18/10:00pm 12.5 9.2 8.0 74 2.2 SW 15 20 8 11 1019.6 1019.6 0.2
18/09:30pm 12.0 10.0 8.5 79 1.7 SSW 9 13 5 7 1019.6 1019.6 0.2
18/09:00pm 11.8 9.2 9.2 84 1.3 S 13 19 7 10 1019.7 1019.7 0.2
18/08:30pm 11.3 9.4 8.9 85 1.2 S 9 11 5 6 1019.5 1019.5 0.2
18/08:00pm 11.5 9.5 8.7 83 1.4 S 9 13 5 7 1019.2 1019.2 0.2
18/07:30pm 12.1 9.1 9.3 83 1.4 SSE 15 19 8 10 1018.8 1018.8 0.2
18/07:00pm 11.8 8.5 9.5 86 1.2 SSE 17 24 9 13 1018.4 1018.4 0.2
18/06:30pm 10.8 9.5 9.9 94 0.5 N 7 9 4 5 1018.0 1018.0 0.2
18/06:00pm 10.2 8.7 9.3 94 0.4 N 7 9 4 5 1017.4 1017.4 0.2
18/05:30pm 10.3 9.4 9.1 92 0.6 N 4 11 2 6 1016.9 1016.9 0.2
18/05:00pm 10.9 9.6 9.3 90 0.8 N 6 6 3 3 1016.8 1016.8 0.2
18/04:30pm 12.6 12.4 10.5 87 1.1 N 2 11 1 6 1016.8 1016.8 0.2
18/04:00pm 13.1 11.7 9.5 79 1.8 N 7 11 4 6 1016.4 1016.4 0.2
18/03:30pm 13.2 13.0 9.1 76 2.1 CALM 0 4 0 2 1016.5 1016.5 0.2
18/03:00pm 13.1 11.3 9.4 78 1.9 N 9 11 5 6 1016.5 1016.5 0.2
18/02:30pm 12.3 9.3 9.3 82 1.5 NE 15 19 8 10 1016.4 1016.4 0.2
18/02:00pm 11.5 9.6 9.2 86 1.2 ESE 9 11 5 6 1016.9 1016.9 0.2
18/01:30pm 11.1 9.2 9.0 87 1.0 ESE 9 13 5 7 1016.7 1016.7 0.2
18/01:00pm 11.6 10.0 8.6 82 1.5 ESE 7 13 4 7 1016.6 1016.6 0.2
18/12:30pm 11.2 8.4 8.4 83 1.4 SE 13 20 7 11 1016.8 1016.8 0.2
18/12:00pm 13.4 9.6 6.0 61 3.5 SW 15 20 8 11 1016.4 1016.4 0.2
18/11:30am 12.9 8.8 6.3 64 3.1 WSW 17 26 9 14 1016.6 1016.6 0.2
18/11:00am 12.6 8.5 6.4 66 2.9 WSW 17 26 9 14 1016.7 1016.7 0.2
18/10:30am 11.7 7.9 7.4 75 2.1 W 17 22 9 12 1016.4 1016.4 0.0
18/10:00am 10.9 6.8 8.0 82 1.4 WNW 19 26 10 14 1015.9 1015.9 0.0
18/09:30am 10.5 6.5 8.3 86 1.1 WNW 19 24 10 13 1015.9 1015.9 0.0
18/09:00am 10.0 6.1 8.6 91 0.7 WNW 19 28 10 15 1015.7 1015.7 0.6
18/08:30am 9.7 5.8 8.5 92 0.6 WNW 19 30 10 16 1015.6 1015.6 0.6
18/08:00am 9.4 5.8 8.5 94 0.4 WNW 17 22 9 12 1015.4 1015.4 0.4
18/07:30am 9.8 5.8 8.2 90 0.8 WNW 19 26 10 14 1015.2 1015.2 0.0
18/07:00am 9.9 5.6 8.0 88 0.9 WNW 20 30 11 16 1015.0 1015.0 0.0
18/06:30am 9.8 5.5 7.9 88 0.9 WNW 20 28 11 15 1014.7 1014.7 0.0
18/06:00am 9.6 5.5 8.0 90 0.8 WNW 19 26 10 14 1014.6 1014.6 0.0
18/05:30am 9.4 5.7 8.0 91 0.7 WNW 17 24 9 13 1014.5 1014.5 0.0
18/05:00am 9.7 5.6 7.8 88 0.9 WNW 19 30 10 16 1014.4 1014.4 0.0
18/04:30am 9.4 5.7 7.8 90 0.8 W 17 26 9 14 1014.0 1014.0 0.0
18/04:00am 9.3 5.1 7.6 89 0.8 WNW 19 28 10 15 1014.1 1014.1 0.0
18/03:30am 9.3 4.9 7.6 89 0.8 WNW 20 33 11 18 1014.1 1014.1 0.0
18/03:02am 9.5 3.6 7.3 86 1.0 WNW 28 46 15 25 1014.2 1014.2 0.0
18/03:00am 9.5 3.1 7.1 85 1.1 WNW 30 46 16 25 1014.3 1014.3 0.0
18/02:30am 10.6 4.3 5.8 72 2.2 WNW 28 46 15 25 1014.2 1014.2 0.0
18/02:23am 10.7 4.4 5.7 71 2.3 WNW 28 46 15 25 1014.2 1014.2 0.0
18/02:00am 10.6 5.4 5.4 70 2.4 WNW 22 32 12 17 1014.6 1014.6 0.0
18/01:30am 10.4 4.8 5.4 71 2.3 WNW 24 35 13 19 1014.5 1014.5 0.0
18/01:00am 10.1 3.0 5.5 73 2.1 WNW 32 48 17 26 1014.2 1014.2 0.0
18/12:34am 10.1 2.9 5.1 71 2.3 WNW 32 50 17 27 1014.0 1014.0 0.0
18/12:30am 10.1 3.3 5.1 71 2.3 WNW 30 46 16 25 1014.0 1014.0 0.0
18/12:09am 10.3 3.1 4.9 69 2.4 WNW 32 50 17 27 1014.2 1014.2 0.0
18/12:00am 10.2 3.0 4.8 69 2.4 WNW 32 43 17 23 1014.2 1014.2 0.0
 
Date/Time
EST
Temp
°C
App
Temp
°C
Dew
Point
°C
Rel
Hum
%
Delta-T
°C
Wind Press
QNH
hPa
Press
MSL
hPa
Rain since
9am
mm
Dir  Spd
km/h
Gust
km/h
Spd
kts
Gust
kts
17/11:36pm 10.0 3.5 4.6 69 2.4 WNW 28 46 15 25 1014.7 1014.7 0.0
17/11:30pm 10.1 3.6 4.7 69 2.4 WNW 28 41 15 22 1014.7 1014.7 0.0
17/11:00pm 10.1 3.5 4.3 67 2.6 WNW 28 43 15 23 1015.0 1015.0 0.0
17/10:30pm 10.2 3.5 3.9 65 2.8 WNW 28 44 15 24 1015.1 1015.1 0.0
17/10:01pm 10.6 3.2 3.9 63 3.0 WNW 32 56 17 30 1014.8 1014.8 0.0
17/10:00pm 10.7 3.3 4.0 63 3.0 WNW 32 48 17 26 1014.9 1014.9 0.0
17/09:30pm 10.6 3.3 4.3 65 2.8 WNW 32 52 17 28 1014.6 1014.6 0.0
17/09:03pm 10.2 2.8 4.1 66 2.7 WNW 32 50 17 27 1014.8 1014.8 0.0
17/09:00pm 10.3 2.8 4.2 66 2.7 WNW 33 50 18 27 1014.7 1014.7 0.0
17/08:50pm 10.1 3.5 4.0 66 2.7 WNW 28 46 15 25 1014.9 1014.9 0.0
17/08:30pm 10.1 3.5 4.0 66 2.7 WNW 28 44 15 24 1014.9 1014.9 0.0
17/08:04pm 10.2 2.8 3.9 65 2.8 NW 32 52 17 28 1015.0 1015.0 0.0
17/08:00pm 10.2 3.2 3.9 65 2.8 NW 30 46 16 25 1015.1 1015.1 0.0
17/07:57pm 10.4 3.7 3.9 64 2.9 WNW 28 46 15 25 1015.1 1015.1 0.0
17/07:30pm 10.3 4.0 3.6 63 2.9 NW 26 41 14 22 1015.4 1015.4 0.0
17/07:00pm 10.4 3.2 3.2 61 3.1 NW 30 46 16 25 1014.9 1014.9 0.0
17/06:41pm 10.7 3.1 2.8 58 3.4 NW 32 52 17 28 1014.6 1014.6 0.0
17/06:30pm 10.7 3.4 2.5 57 3.5 WNW 30 44 16 24 1014.8 1014.8 0.0
17/06:10pm 10.8 3.9 2.6 57 3.5 NW 28 52 15 28 1014.5 1014.5 0.0
17/06:00pm 10.9 4.4 2.5 56 3.6 NW 26 44 14 24 1014.6 1014.6 0.0
17/05:30pm 11.0 3.7 2.3 55 3.7 NW 30 46 16 25 1014.3 1014.3 0.0
17/05:01pm 11.1 4.1 2.2 54 3.8 NW 28 57 15 31 1014.0 1014.0 0.0
17/05:00pm 11.1 4.5 2.2 54 3.8 NW 26 56 14 30 1014.1 1014.1 0.0
17/04:30pm 11.7 3.9 1.9 51 4.2 NW 32 52 17 28 1013.8 1013.8 0.0
17/04:00pm 12.3 5.3 1.9 49 4.5 WNW 28 52 15 28 1013.3 1013.3 0.0

Other Formats:

Comma delimited format used in spreadsheet applications
http://www.bom.gov.au/fwo/IDN60801/IDN60801.94650.axf

JavaScript Object Notation format (JSON) in row-major order
http://www.bom.gov.au/fwo/IDN60801/IDN60801.94650.json